Time;durP1;ratioP1;P1;durP2;ratioP2;P2;SDS_P1;SDS_P2;PMS_P1;PMS_P2;Temp;Humidity;BMP_temperature;BMP_pressure;BME280_temperature;BME280_humidity;BME280_pressure;Samples;Min_cycle;Max_cycle;Signal;HPM_P1;HPM_P2
2023/10/24 00:02:22;;;;;;;0.88;0.70;;;10.20;10.00;;;;;;5080493;28;20386;-91
2023/10/24 00:04:50;;;;;;;1.70;1.00;;;10.20;1.00;;;;;;5062285;28;20051;-89
2023/10/24 00:07:17;;;;;;;1.23;0.75;;;10.20;1.00;;;;;;5078381;28;20043;-91
2023/10/24 00:09:44;;;;;;;0.90;0.52;;;10.10;6.00;;;;;;5073070;28;20100;-90
2023/10/24 00:12:16;;;;;;;1.48;0.63;;;10.10;9.10;;;;;;5090322;28;20479;-91
2023/10/24 00:14:43;;;;;;;1.40;0.80;;;10.10;1.00;;;;;;5071260;28;20203;-91
2023/10/24 00:17:16;;;;;;;0.93;0.80;;;10.00;14.00;;;;;;5078643;28;20059;-92
2023/10/24 00:19:43;;;;;;;;;;;10.00;16.80;;;;;;5075896;28;20131;-91
2023/10/24 00:22:11;;;;;;;1.52;1.02;;;9.90;1.00;;;;;;5092314;28;19965;-91
2023/10/24 00:24:38;;;;;;;1.50;1.10;;;9.90;1.00;;;;;;5076402;28;20055;-91
2023/10/24 00:27:05;;;;;;;1.52;1.00;;;9.90;6.30;;;;;;5077670;28;20054;-90
2023/10/24 00:29:32;;;;;;;1.00;0.70;;;9.90;15.10;;;;;;5074928;28;20059;-90
2023/10/24 00:32:01;;;;;;;0.93;0.77;;;9.80;50.20;;;;;;5077976;28;20044;-89
2023/10/24 00:34:34;;;;;;;0.95;0.85;;;9.80;44.20;;;;;;5079548;28;20511;-89
2023/10/24 00:37:03;;;;;;;1.17;0.73;;;9.80;57.90;;;;;;5093045;28;20036;-91
2023/10/24 00:39:31;;;;;;;1.10;0.80;;;9.80;11.40;;;;;;5070285;28;20044;-90
2023/10/24 00:41:58;;;;;;;1.00;0.77;;;9.70;1.00;;;;;;5091122;28;20040;-90
2023/10/24 00:44:27;;;;;;;0.88;0.70;;;9.70;1.00;;;;;;5074244;28;20056;-89
2023/10/24 00:46:54;;;;;;;0.95;0.75;;;9.60;1.00;;;;;;5076147;28;20458;-91
2023/10/24 00:49:26;;;;;;;1.23;0.90;;;9.60;45.70;;;;;;5067196;28;20055;-93
2023/10/24 00:51:55;;;;;;;0.80;0.60;;;9.60;43.40;;;;;;5074846;28;20157;-92
2023/10/24 00:54:21;;;;;;;1.27;0.98;;;9.60;63.20;;;;;;5064965;28;20048;-92
2023/10/24 00:56:48;;;;;;;0.85;0.75;;;9.60;37.90;;;;;;5064744;28;20044;-94
2023/10/24 00:59:15;;;;;;;0.80;0.75;;;9.60;4.10;;;;;;5073835;28;20224;-91
2023/10/24 01:01:42;;;;;;;0.82;0.68;;;9.60;27.60;;;;;;5085304;28;20076;-93
2023/10/24 01:04:09;;;;;;;0.82;0.52;;;9.50;69.00;;;;;;5069651;28;20047;-91
2023/10/24 01:06:36;;;;;;;1.00;0.80;;;9.50;56.90;;;;;;5067070;28;20067;-93
2023/10/24 01:09:03;;;;;;;1.63;0.80;;;9.50;38.30;;;;;;5065918;28;20062;-90
2023/10/24 01:11:30;;;;;;;1.13;0.75;;;9.60;62.70;;;;;;5073504;28;20142;-91
2023/10/24 01:14:01;;;;;;;1.15;0.95;;;9.60;34.60;;;;;;5089652;28;20051;-92
2023/10/24 01:16:33;;;;;;;1.70;0.70;;;9.60;93.70;;;;;;5080407;28;20047;-91
2023/10/24 01:19:00;;;;;;;1.40;0.90;;;9.60;69.10;;;;;;5063483;28;20043;-89
2023/10/24 01:21:28;;;;;;;1.10;0.80;;;9.60;35.90;;;;;;5085856;28;20067;-90
2023/10/24 01:23:55;;;;;;;1.42;0.70;;;9.60;1.00;;;;;;5087500;28;20128;-89
2023/10/24 01:26:22;;;;;;;1.00;0.70;;;9.60;1.00;;;;;;5069738;28;20554;-91
2023/10/24 01:28:50;;;;;;;1.48;0.93;;;9.60;1.00;;;;;;5093034;28;20052;-90
2023/10/24 01:31:19;;;;;;;0.73;0.60;;;9.60;1.00;;;;;;5078345;28;20071;-91
2023/10/24 01:33:48;;;;;;;1.10;0.80;;;9.70;16.90;;;;;;5075035;28;20412;-91
2023/10/24 01:36:17;;;;;;;1.13;0.52;;;9.70;77.60;;;;;;5091477;28;20062;-90
2023/10/24 01:38:44;;;;;;;1.10;0.80;;;9.80;80.70;;;;;;5078005;28;20056;-91
2023/10/24 01:41:18;;;;;;;0.75;0.65;;;9.80;60.10;;;;;;5075658;28;20052;-91
2023/10/24 01:43:45;;;;;;;0.63;0.50;;;9.80;36.60;;;;;;5081073;28;20052;-91
2023/10/24 01:46:13;;;;;;;0.57;0.52;;;9.80;25.60;;;;;;5078269;28;20482;-90
2023/10/24 01:48:40;;;;;;;1.60;0.95;;;9.90;10.30;;;;;;5078018;28;20044;-91
2023/10/24 01:51:08;;;;;;;0.88;0.68;;;9.90;1.00;;;;;;5088753;28;20047;-90
2023/10/24 01:53:37;;;;;;;0.95;0.70;;;9.90;1.00;;;;;;5065186;28;20056;-92
2023/10/24 01:56:11;;;;;;;0.80;0.52;;;9.90;50.30;;;;;;5073837;28;20096;-91
2023/10/24 01:58:51;;;;;;;1.15;0.80;;;10.00;54.80;;;;;;5066540;28;20054;-90
2023/10/24 02:01:22;;;;;;;0.77;0.70;;;10.00;28.30;;;;;;5071329;28;20142;-90
2023/10/24 02:03:51;;;;;;;0.88;0.60;;;10.00;68.20;;;;;;5078357;28;20428;-91
2023/10/24 02:06:21;;;;;;;1.02;0.73;;;10.10;61.40;;;;;;5078064;28;20374;-92
2023/10/24 02:08:48;;;;;;;0.75;0.60;;;10.10;28.20;;;;;;5100614;28;20047;-90
2023/10/24 02:11:15;;;;;;;1.23;0.80;;;10.10;17.60;;;;;;5093364;28;20054;-92
2023/10/24 02:13:49;;;;;;;1.42;0.73;;;10.10;40.80;;;;;;5075220;28;20059;-90
2023/10/24 02:16:16;;;;;;;;;;;10.20;24.90;;;;;;5081288;28;20058;-90
2023/10/24 02:19:08;;;;;;;0.50;0.50;;;10.20;6.70;;;;;;5097310;28;19920;-91
2023/10/24 02:21:37;;;;;;;1.10;0.80;;;10.20;6.20;;;;;;5096475;28;20044;-89
2023/10/24 02:24:05;;;;;;;1.05;0.70;;;10.20;21.60;;;;;;5076683;28;20048;-92
2023/10/24 02:26:37;;;;;;;0.82;0.60;;;10.20;55.60;;;;;;5077139;28;20044;-92
2023/10/24 02:29:17;;;;;;;1.52;1.13;;;10.30;51.10;;;;;;5073552;28;20132;-92
2023/10/24 02:32:02;;;;;;;1.35;0.82;;;10.30;1.00;;;;;;5091027;28;20056;-92
2023/10/24 02:34:30;;;;;;;1.20;0.73;;;10.30;14.60;;;;;;5086524;28;20056;-91
2023/10/24 02:36:58;;;;;;;1.05;0.75;;;10.30;25.70;;;;;;5075015;28;20075;-90
2023/10/24 02:39:27;;;;;;;0.75;0.57;;;10.30;53.60;;;;;;5089788;28;20074;-92
2023/10/24 02:42:00;;;;;;;1.40;0.95;;;10.30;56.10;;;;;;5085317;28;20044;-91
2023/10/24 02:44:28;;;;;;;1.42;0.70;;;10.40;55.10;;;;;;5093857;28;20731;-90
2023/10/24 02:46:57;;;;;;;1.13;0.70;;;10.40;33.00;;;;;;5079933;28;20093;-91
2023/10/24 02:49:24;;;;;;;1.42;0.88;;;10.40;47.80;;;;;;5077061;28;20070;-92
2023/10/24 02:52:06;;;;;;;1.55;0.90;;;10.40;10.00;;;;;;5101545;28;20059;-91
2023/10/24 02:54:42;;;;;;;1.70;1.10;;;10.40;30.10;;;;;;5071733;28;20151;-92
2023/10/24 02:57:09;;;;;;;2.30;1.35;;;10.40;31.40;;;;;;5099376;28;20064;-91
2023/10/24 02:59:37;;;;;;;2.00;1.20;;;10.50;46.50;;;;;;5094290;28;20055;-91
2023/10/24 03:02:06;;;;;;;1.98;1.30;;;10.50;76.10;;;;;;5083394;28;20043;-90
2023/10/24 03:04:35;;;;;;;2.13;1.35;;;10.50;47.60;;;;;;5080242;28;20071;-92
2023/10/24 03:07:05;;;;;;;1.13;0.80;;;10.50;49.10;;;;;;5102544;28;20167;-91
2023/10/24 03:09:33;;;;;;;1.83;0.93;;;10.50;57.40;;;;;;5074897;28;20459;-91
2023/10/24 03:12:02;;;;;;;1.55;0.95;;;10.50;36.30;;;;;;5109984;28;20058;-90
2023/10/24 03:14:32;;;;;;;1.30;0.90;;;10.50;23.00;;;;;;5076890;28;20052;-92
2023/10/24 03:17:06;;;;;;;1.17;0.95;;;10.50;25.20;;;;;;5098118;28;20104;-90
2023/10/24 03:19:34;;;;;;;1.67;1.05;;;10.50;12.90;;;;;;5093537;28;20078;-90
2023/10/24 03:22:02;;;;;;;1.42;0.90;;;10.60;76.30;;;;;;5063696;28;20080;-90
2023/10/24 03:24:30;;;;;;;1.30;0.93;;;10.60;37.00;;;;;;5064964;28;20134;-91
2023/10/24 03:27:02;;;;;;;1.50;1.15;;;10.60;90.70;;;;;;5093826;28;20050;-92
2023/10/24 03:29:42;;;;;;;2.05;1.55;;;10.60;99.90;;;;;;5094864;28;20056;-90
2023/10/24 03:32:10;;;;;;;1.63;1.17;;;10.60;99.90;;;;;;5079924;28;20044;-91
2023/10/24 03:34:45;;;;;;;2.55;1.40;;;10.60;99.90;;;;;;5096202;28;20048;-92
2023/10/24 03:37:14;;;;;;;1.73;1.20;;;10.60;99.90;;;;;;5091526;27;20141;-92
2023/10/24 03:39:41;;;;;;;1.67;1.38;;;10.60;99.90;;;;;;5073196;28;20494;-91
2023/10/24 03:42:13;;;;;;;1.80;1.33;;;10.60;96.70;;;;;;5084855;28;20097;-91
2023/10/24 03:44:41;;;;;;;1.80;1.45;;;10.60;99.90;;;;;;5084282;28;20124;-91
2023/10/24 03:47:13;;;;;;;1.73;1.15;;;10.60;99.90;;;;;;5083203;28;20063;-90
2023/10/24 03:49:41;;;;;;;1.88;1.35;;;10.60;99.90;;;;;;5079757;28;20048;-90
2023/10/24 03:52:11;;;;;;;1.83;1.23;;;10.60;99.90;;;;;;5071425;28;20068;-90
2023/10/24 03:54:44;;;;;;;1.85;1.45;;;10.60;99.90;;;;;;5097250;28;20460;-91
2023/10/24 03:57:13;;;;;;;;;;;10.70;99.90;;;;;;5083856;28;20043;-91
2023/10/24 03:59:42;;;;;;;1.60;1.27;;;10.70;99.90;;;;;;5096184;28;19919;-90
2023/10/24 04:02:14;;;;;;;2.05;1.58;;;10.70;99.90;;;;;;5079381;28;20176;-90
2023/10/24 04:04:41;;;;;;;1.92;1.42;;;10.70;99.90;;;;;;5091444;28;20671;-89
2023/10/24 04:07:09;;;;;;;2.85;1.92;;;10.70;99.90;;;;;;5083986;28;20105;-89
2023/10/24 04:09:37;;;;;;;2.75;1.90;;;10.70;99.90;;;;;;5072242;28;20117;-90
2023/10/24 04:12:08;;;;;;;2.63;1.80;;;10.70;99.90;;;;;;5070908;28;20059;-90
2023/10/24 04:14:35;;;;;;;2.13;1.40;;;10.70;99.90;;;;;;5102498;28;20250;-90
2023/10/24 04:17:02;;;;;;;2.55;1.60;;;10.70;99.90;;;;;;5074358;28;20147;-88
2023/10/24 04:19:30;;;;;;;2.30;1.60;;;10.70;99.90;;;;;;5061377;28;20093;-88
2023/10/24 04:21:57;;;;;;;3.10;2.17;;;10.70;99.90;;;;;;5071689;28;20058;-93
2023/10/24 04:24:23;;;;;;;2.90;2.00;;;10.70;99.90;;;;;;5073644;28;20052;-93
2023/10/24 04:26:51;;;;;;;2.47;1.73;;;10.70;99.90;;;;;;5076595;28;20047;-89
2023/10/24 04:29:17;;;;;;;2.28;1.58;;;10.70;99.90;;;;;;5075291;28;20105;-89
2023/10/24 04:31:44;;;;;;;1.63;1.27;;;10.70;99.90;;;;;;5090607;28;20066;-90
2023/10/24 04:34:12;;;;;;;2.00;1.40;;;10.70;99.90;;;;;;5076255;28;20048;-89
2023/10/24 04:36:39;;;;;;;1.90;1.38;;;10.70;99.90;;;;;;5075650;28;20052;-90
2023/10/24 04:39:06;;;;;;;1.45;1.00;;;10.70;99.90;;;;;;5090849;28;20048;-87
2023/10/24 04:41:33;;;;;;;2.75;1.85;;;10.70;99.90;;;;;;5064125;28;20129;-87
2023/10/24 04:44:00;;;;;;;1.65;1.17;;;10.70;99.90;;;;;;5077877;28;20040;-88
2023/10/24 04:46:27;;;;;;;2.05;1.50;;;10.70;99.90;;;;;;5078969;28;20081;-86
2023/10/24 04:48:54;;;;;;;2.15;1.60;;;10.70;99.90;;;;;;5106858;28;20043;-84
2023/10/24 04:51:24;;;;;;;1.98;1.60;;;10.70;99.90;;;;;;5088076;28;20062;-89
2023/10/24 04:53:52;;;;;;;2.42;1.70;;;10.80;99.90;;;;;;5069004;28;20077;-88
2023/10/24 04:56:20;;;;;;;1.77;1.40;;;10.80;99.90;;;;;;5073339;28;20063;-84
2023/10/24 04:58:48;;;;;;;2.88;1.90;;;10.80;99.90;;;;;;5070501;28;20059;-87
2023/10/24 05:01:15;;;;;;;1.80;1.23;;;10.80;99.90;;;;;;5086403;28;20040;-86
2023/10/24 05:03:42;;;;;;;1.88;1.33;;;10.80;99.90;;;;;;5080053;28;20044;-87
2023/10/24 05:06:12;;;;;;;1.98;1.40;;;10.80;99.90;;;;;;5071771;28;20056;-88
2023/10/24 05:08:40;;;;;;;1.75;1.00;;;10.80;99.90;;;;;;5074093;28;20047;-86
2023/10/24 05:11:07;;;;;;;1.33;1.00;;;10.80;99.90;;;;;;5070507;28;20096;-87
2023/10/24 05:13:35;;;;;;;1.23;0.90;;;10.80;99.90;;;;;;5073849;28;20058;-88
2023/10/24 05:16:04;;;;;;;1.33;0.90;;;10.80;99.90;;;;;;5069671;28;20051;-86
2023/10/24 05:18:31;;;;;;;1.50;1.05;;;10.80;99.90;;;;;;5067068;28;20044;-85
2023/10/24 05:20:58;;;;;;;1.30;0.88;;;10.80;99.90;;;;;;5070127;28;20048;-85
2023/10/24 05:23:26;;;;;;;1.55;1.08;;;10.90;99.90;;;;;;5069995;28;20051;-87
2023/10/24 05:25:53;;;;;;;0.98;0.82;;;10.80;99.90;;;;;;5067492;28;20255;-87
2023/10/24 05:28:21;;;;;;;1.05;0.82;;;10.80;99.90;;;;;;5069034;28;20186;-86
2023/10/24 05:30:48;;;;;;;1.17;0.90;;;10.90;99.90;;;;;;5066578;28;20043;-87
2023/10/24 05:33:15;;;;;;;0.90;0.80;;;10.80;99.90;;;;;;5066894;28;20150;-88
2023/10/24 05:35:49;;;;;;;1.60;0.98;;;10.90;99.90;;;;;;5084464;28;20139;-85
2023/10/24 05:38:16;;;;;;;1.20;0.80;;;10.90;99.90;;;;;;5069601;28;20043;-87
2023/10/24 05:40:49;;;;;;;0.95;0.85;;;10.80;99.90;;;;;;5083626;28;20193;-85
2023/10/24 05:43:16;;;;;;;1.73;1.00;;;10.80;99.90;;;;;;5086676;28;20059;-85
2023/10/24 05:45:43;;;;;;;0.95;0.70;;;10.80;99.90;;;;;;5066127;28;20097;-82
2023/10/24 05:48:10;;;;;;;1.55;0.80;;;10.70;99.90;;;;;;5060299;28;20040;-85
2023/10/24 05:50:39;;;;;;;1.20;0.70;;;10.70;99.90;;;;;;5075158;28;20096;-84
2023/10/24 05:53:06;;;;;;;0.80;0.65;;;10.70;99.90;;;;;;5074995;28;20058;-83
2023/10/24 05:55:33;;;;;;;0.70;0.60;;;10.70;99.90;;;;;;5090816;28;20047;-84
2023/10/24 05:58:00;;;;;;;0.68;0.52;;;10.70;99.90;;;;;;5069156;28;20040;-86
2023/10/24 06:00:28;;;;;;;0.70;0.70;;;10.70;99.90;;;;;;5075825;28;20203;-84
2023/10/24 06:02:56;;;;;;;0.65;0.60;;;10.70;99.90;;;;;;5067645;28;20051;-86
2023/10/24 06:05:23;;;;;;;0.85;0.80;;;10.70;99.90;;;;;;5066552;28;20044;-85
2023/10/24 06:07:58;;;;;;;1.45;1.17;;;10.60;99.90;;;;;;5058895;28;20120;-88
2023/10/24 06:10:25;;;;;;;2.15;1.42;;;10.60;99.90;;;;;;5070100;28;20461;-91
2023/10/24 06:12:55;;;;;;;2.40;1.65;;;10.50;99.90;;;;;;5069121;28;20067;-93
2023/10/24 06:15:22;;;;;;;2.22;1.67;;;10.50;99.90;;;;;;5079790;28;20496;-93
2023/10/24 06:17:49;;;;;;;1.20;1.00;;;10.40;99.90;;;;;;5082312;28;20108;-81
2023/10/24 06:20:16;;;;;;;1.23;0.98;;;10.40;1.00;;;;;;5091085;28;20055;-79
2023/10/24 06:22:43;;;;;;;0.82;0.68;;;10.50;1.00;;;;;;5090293;28;20052;-80
2023/10/24 06:25:10;;;;;;;1.10;0.80;;;10.50;1.00;;;;;;5087176;28;20074;-80
2023/10/24 06:27:37;;;;;;;0.73;0.68;;;10.50;1.00;;;;;;5092096;28;20098;-80
2023/10/24 06:30:05;;;;;;;1.00;0.80;;;10.50;1.00;;;;;;5093787;28;20059;-80
2023/10/24 06:32:32;;;;;;;0.73;0.60;;;10.50;1.00;;;;;;5075518;28;20643;-80
2023/10/24 06:34:59;;;;;;;0.85;0.70;;;10.50;1.00;;;;;;5099650;28;20071;-80
2023/10/24 06:37:26;;;;;;;0.70;0.60;;;10.40;1.00;;;;;;5092324;28;20051;-80
2023/10/24 06:39:53;;;;;;;0.80;0.60;;;10.50;1.00;;;;;;5083913;28;20295;-80
2023/10/24 06:42:20;;;;;;;0.68;0.60;;;10.50;1.00;;;;;;5083326;28;20079;-79
2023/10/24 06:44:46;;;;;;;0.77;0.60;;;10.50;1.00;;;;;;5092368;28;20084;-79
2023/10/24 06:47:13;;;;;;;0.82;0.70;;;10.50;1.00;;;;;;5088192;28;20040;-80
2023/10/24 06:49:40;;;;;;;0.75;0.63;;;10.50;1.00;;;;;;5091074;28;20044;-79
2023/10/24 06:52:08;;;;;;;1.13;0.85;;;10.50;1.00;;;;;;5085642;28;20473;-79
2023/10/24 06:54:34;;;;;;;0.95;0.70;;;10.60;1.00;;;;;;5091481;28;20115;-79
2023/10/24 06:57:01;;;;;;;0.90;0.70;;;10.50;99.90;;;;;;5083301;28;20053;-79
2023/10/24 06:59:29;;;;;;;0.82;0.77;;;10.50;1.00;;;;;;5089432;28;20082;-79
2023/10/24 07:01:56;;;;;;;0.68;0.60;;;10.50;1.00;;;;;;5085561;28;20452;-79
2023/10/24 07:04:23;;;;;;;0.75;0.65;;;10.50;1.00;;;;;;5087360;28;20325;-79
2023/10/24 07:06:50;;;;;;;0.82;0.70;;;10.60;1.00;;;;;;5086957;28;20070;-79
2023/10/24 07:09:19;;;;;;;0.77;0.70;;;10.60;1.00;;;;;;5087080;28;20048;-79
2023/10/24 07:11:45;;;;;;;1.52;1.08;;;10.60;1.00;;;;;;5087410;28;20128;-78
2023/10/24 07:14:12;;;;;;;2.13;1.40;;;10.60;99.90;;;;;;5088875;28;20083;-78
2023/10/24 07:16:39;;;;;;;1.33;0.88;;;10.60;1.00;;;;;;5075826;28;20102;-78
2023/10/24 07:19:06;;;;;;;1.05;0.82;;;10.60;1.00;;;;;;5083320;28;20454;-78
2023/10/24 07:21:33;;;;;;;0.75;0.63;;;10.60;1.00;;;;;;5086943;28;20485;-78
2023/10/24 07:24:00;;;;;;;0.70;0.52;;;10.60;1.00;;;;;;5088338;28;20112;-78
2023/10/24 07:26:26;;;;;;;0.85;0.70;;;10.70;1.00;;;;;;5086338;28;20078;-79
2023/10/24 07:28:54;;;;;;;0.90;0.80;;;10.70;1.00;;;;;;5087531;28;20667;-80
2023/10/24 07:31:21;;;;;;;1.25;1.00;;;10.70;1.00;;;;;;5072270;28;20048;-79
2023/10/24 07:33:49;;;;;;;0.77;0.63;;;10.70;1.00;;;;;;5091082;28;20048;-79
2023/10/24 07:36:16;;;;;;;0.80;0.70;;;10.70;1.00;;;;;;5091169;28;20455;-79
2023/10/24 07:38:43;;;;;;;1.13;0.85;;;10.80;1.00;;;;;;5089919;28;20047;-79
2023/10/24 07:41:13;;;;;;;0.75;0.73;;;10.80;1.00;;;;;;5090534;28;21824;-79
2023/10/24 07:43:40;;;;;;;1.17;0.80;;;10.80;99.90;;;;;;5070419;28;20044;-78
2023/10/24 07:46:09;;;;;;;1.25;0.90;;;10.80;99.90;;;;;;5092277;28;20051;-78
2023/10/24 07:48:36;;;;;;;0.93;0.70;;;10.80;99.90;;;;;;5091472;28;20047;-77
2023/10/24 07:51:03;;;;;;;0.93;0.75;;;10.80;99.90;;;;;;5055050;28;20127;-78
2023/10/24 07:53:33;;;;;;;0.85;0.80;;;10.90;99.90;;;;;;5066356;28;21282;-79
2023/10/24 07:56:03;;;;;;;0.88;0.73;;;10.90;99.90;;;;;;5073397;28;20152;-78
2023/10/24 07:58:30;;;;;;;0.70;0.70;;;11.00;99.90;;;;;;5080890;28;20515;-78
2023/10/24 08:00:57;;;;;;;1.05;0.85;;;11.00;99.90;;;;;;5074762;28;20048;-78
2023/10/24 08:03:24;;;;;;;1.30;1.00;;;11.10;99.90;;;;;;5060181;28;20101;-79
2023/10/24 08:05:52;;;;;;;1.13;0.82;;;11.20;99.90;;;;;;5068072;28;20553;-78
2023/10/24 08:08:19;;;;;;;1.10;0.80;;;11.20;99.90;;;;;;5084541;28;20104;-78
2023/10/24 08:10:45;;;;;;;1.00;0.90;;;11.30;99.90;;;;;;5084786;28;20110;-78
2023/10/24 08:13:12;;;;;;;0.88;0.70;;;11.30;99.90;;;;;;5077678;28;20044;-79
2023/10/24 08:15:40;;;;;;;0.80;0.73;;;11.40;99.90;;;;;;5080978;28;20281;-79
2023/10/24 08:18:06;;;;;;;1.00;0.90;;;11.50;99.90;;;;;;5086055;28;20059;-79
2023/10/24 08:20:33;;;;;;;1.00;0.93;;;11.50;99.90;;;;;;5082765;28;20052;-79
2023/10/24 08:23:00;;;;;;;1.08;0.90;;;11.50;99.90;;;;;;5067013;28;20118;-80
2023/10/24 08:25:27;;;;;;;1.15;0.95;;;11.60;99.90;;;;;;5079257;28;20047;-80
2023/10/24 08:27:54;;;;;;;0.70;0.70;;;11.60;99.90;;;;;;5082854;28;20489;-79
2023/10/24 08:30:21;;;;;;;1.23;0.90;;;11.60;99.90;;;;;;5081658;28;20752;-78
2023/10/24 08:32:48;;;;;;;1.00;0.88;;;11.60;99.90;;;;;;5088587;28;20043;-78
2023/10/24 08:35:15;;;;;;;1.33;1.20;;;11.60;99.90;;;;;;5055423;28;20652;-79
2023/10/24 08:37:42;;;;;;;1.25;1.00;;;11.50;99.90;;;;;;5085154;28;20036;-78
2023/10/24 08:40:10;;;;;;;1.50;1.20;;;11.50;99.90;;;;;;5070830;28;20350;-80
2023/10/24 08:42:37;;;;;;;1.08;0.95;;;11.60;99.90;;;;;;5081373;28;20126;-80
2023/10/24 08:45:05;;;;;;;1.38;1.00;;;11.60;99.90;;;;;;5088166;28;20106;-79
2023/10/24 08:47:32;;;;;;;0.90;0.75;;;11.60;99.90;;;;;;5052081;28;20402;-79
2023/10/24 08:50:00;;;;;;;0.80;0.77;;;11.70;99.90;;;;;;5049772;28;20533;-79
2023/10/24 08:52:30;;;;;;;1.08;0.90;;;11.80;99.90;;;;;;5088001;28;20052;-79
2023/10/24 08:54:59;;;;;;;0.88;0.70;;;11.90;99.90;;;;;;5087474;28;20054;-79
2023/10/24 08:57:30;;;;;;;1.40;0.93;;;12.00;74.80;;;;;;5090549;28;20415;-79
2023/10/24 08:59:58;;;;;;;1.48;0.90;;;12.10;19.20;;;;;;5071411;28;20120;-79
2023/10/24 09:02:25;;;;;;;1.48;1.00;;;12.20;1.00;;;;;;5073697;28;20051;-79
2023/10/24 09:04:52;;;;;;;2.05;0.90;;;12.20;1.00;;;;;;5092049;28;20040;-80
2023/10/24 09:07:19;;;;;;;1.40;1.02;;;12.30;1.00;;;;;;5087225;28;20674;-80
2023/10/24 09:09:46;;;;;;;1.60;1.10;;;12.40;99.90;;;;;;5091800;28;20047;-80
2023/10/24 09:12:15;;;;;;;1.30;1.08;;;12.30;99.90;;;;;;5058944;28;20040;-80
2023/10/24 09:14:46;;;;;;;1.33;1.23;;;12.40;99.90;;;;;;5071742;28;20663;-79
2023/10/24 09:17:20;;;;;;;1.67;1.10;;;12.30;99.90;;;;;;5087986;28;20048;-80
2023/10/24 09:19:48;;;;;;;2.03;1.17;;;12.30;99.90;;;;;;5074572;28;20055;-78
2023/10/24 09:22:16;;;;;;;1.60;0.90;;;12.30;99.90;;;;;;5092334;28;20139;-79
2023/10/24 09:24:46;;;;;;;1.80;1.20;;;12.40;1.00;;;;;;5094003;28;20043;-79
2023/10/24 09:27:14;;;;;;;1.30;1.20;;;12.50;1.00;;;;;;5084488;28;20513;-79
2023/10/24 09:29:41;;;;;;;1.58;0.90;;;12.60;99.90;;;;;;5088133;28;20076;-79
2023/10/24 09:32:18;;;;;;;1.10;1.00;;;12.70;1.00;;;;;;5092496;28;20048;-79
2023/10/24 09:34:45;;;;;;;1.30;1.10;;;12.80;1.00;;;;;;5085455;28;20523;-79
2023/10/24 09:37:16;;;;;;;1.10;1.00;;;12.90;99.90;;;;;;5083308;28;20067;-80
2023/10/24 09:40:10;;;;;;;0.88;0.82;;;12.90;99.90;;;;;;5083042;28;20052;-79
2023/10/24 09:42:37;;;;;;;1.30;1.15;;;13.00;99.90;;;;;;5082212;28;20732;-79
2023/10/24 09:45:07;;;;;;;2.15;1.33;;;13.10;99.90;;;;;;5087513;28;20044;-79
2023/10/24 09:47:34;;;;;;;1.52;1.40;;;13.10;16.00;;;;;;5089314;28;20066;-79
2023/10/24 09:50:03;;;;;;;1.55;1.45;;;13.10;1.00;;;;;;5072497;28;20497;-78
2023/10/24 09:52:30;;;;;;;1.55;1.27;;;13.20;99.90;;;;;;5089701;28;20074;-79
2023/10/24 09:54:58;;;;;;;1.85;1.40;;;13.20;1.00;;;;;;5086209;28;20127;-79
2023/10/24 09:57:26;;;;;;;1.42;1.02;;;13.20;99.90;;;;;;5076154;28;20050;-78
2023/10/24 09:59:56;;;;;;;1.70;1.30;;;13.20;99.90;;;;;;5087951;28;20040;-79
2023/10/24 10:02:23;;;;;;;1.15;1.05;;;13.10;1.00;;;;;;5087436;28;20078;-79
2023/10/24 10:04:52;;;;;;;1.27;1.05;;;13.10;99.90;;;;;;5087658;28;20108;-79
2023/10/24 10:07:21;;;;;;;1.52;1.00;;;13.00;1.00;;;;;;5085767;28;20078;-79
2023/10/24 10:09:51;;;;;;;1.25;1.08;;;12.90;99.90;;;;;;5084610;28;20044;-79
2023/10/24 10:12:18;;;;;;;0.98;0.75;;;12.90;56.10;;;;;;5090347;28;20055;-79
2023/10/24 10:15:08;;;;;;;0.88;0.80;;;13.00;84.80;;;;;;5094378;28;20120;-79
2023/10/24 10:18:04;;;;;;;1.20;0.93;;;13.00;99.90;;;;;;5086786;28;20497;-79
2023/10/24 10:20:54;;;;;;;0.98;0.80;;;13.10;99.90;;;;;;5072412;28;20096;-78
2023/10/24 10:23:59;;;;;;;2.13;1.13;;;13.10;1.00;;;;;;5087807;28;20139;-79
2023/10/24 10:26:57;;;;;;;1.52;1.23;;;13.00;99.90;;;;;;5087414;28;20051;-80
2023/10/24 10:29:36;;;;;;;1.67;1.20;;;12.90;58.50;;;;;;5092182;28;20086;-80
2023/10/24 10:32:30;;;;;;;2.00;1.15;;;12.90;99.90;;;;;;5088606;28;20409;-80
2023/10/24 10:35:17;;;;;;;;;;;12.80;53.10;;;;;;5090643;28;20070;-80
2023/10/24 10:38:05;;;;;;;1.20;0.90;;;12.80;99.90;;;;;;5085365;28;19920;-80
2023/10/24 10:40:33;;;;;;;0.70;0.70;;;12.80;1.00;;;;;;5090092;28;20052;-79
2023/10/24 10:43:00;;;;;;;1.27;0.77;;;12.80;1.00;;;;;;5081562;28;20412;-79
2023/10/24 10:45:27;;;;;;;1.60;1.10;;;12.70;1.00;;;;;;5085379;28;20044;-79
2023/10/24 10:47:58;;;;;;;1.00;0.70;;;12.80;1.00;;;;;;5085667;28;20190;-80
2023/10/24 10:50:29;;;;;;;1.17;0.68;;;12.90;1.00;;;;;;5084997;28;20048;-79
2023/10/24 10:53:14;;;;;;;1.25;0.95;;;13.10;1.00;;;;;;5093620;28;20048;-79
2023/10/24 10:56:14;;;;;;;1.08;0.80;;;13.10;1.00;;;;;;5087980;28;20036;-80
2023/10/24 10:58:50;;;;;;;1.08;0.77;;;13.20;99.90;;;;;;5076539;28;20137;-79
2023/10/24 11:01:41;;;;;;;1.25;0.70;;;13.10;99.90;;;;;;5076296;28;20493;-79
2023/10/24 11:04:17;;;;;;;1.02;0.80;;;13.10;99.90;;;;;;5074398;28;20362;-79
2023/10/24 11:06:53;;;;;;;1.15;0.85;;;13.20;99.90;;;;;;5097413;28;20086;-79
2023/10/24 11:09:42;;;;;;;0.90;0.63;;;13.30;99.90;;;;;;5098366;28;20594;-79
2023/10/24 11:12:21;;;;;;;1.10;0.50;;;13.40;99.90;;;;;;5088380;28;20040;-79
2023/10/24 11:15:07;;;;;;;1.13;0.68;;;13.40;99.90;;;;;;5090708;28;20148;-79
2023/10/24 11:17:34;;;;;;;1.23;0.70;;;13.50;99.90;;;;;;5093412;28;20052;-79
2023/10/24 11:20:02;;;;;;;1.30;0.60;;;13.40;99.90;;;;;;5073383;28;20219;-79
2023/10/24 11:22:47;;;;;;;0.70;0.65;;;13.50;99.90;;;;;;5070699;28;20131;-78
2023/10/24 11:25:16;;;;;;;2.45;1.25;;;13.60;99.90;;;;;;5077746;28;20047;-79
2023/10/24 11:27:43;;;;;;;1.00;0.70;;;13.70;99.90;;;;;;5087631;28;20150;-80
2023/10/24 11:30:10;;;;;;;0.85;0.70;;;13.80;99.90;;;;;;5092068;28;20048;-79
2023/10/24 11:32:37;;;;;;;0.88;0.80;;;13.90;99.90;;;;;;5092648;28;20555;-79
2023/10/24 11:35:04;;;;;;;0.50;0.50;;;13.90;99.90;;;;;;5091696;28;20058;-79
2023/10/24 11:37:31;;;;;;;0.95;0.60;;;13.90;99.90;;;;;;5090222;28;20040;-79
2023/10/24 11:39:59;;;;;;;0.50;0.45;;;14.10;99.90;;;;;;5089958;28;20082;-79
2023/10/24 11:42:26;;;;;;;1.27;0.70;;;14.20;99.90;;;;;;5086080;28;20083;-79
2023/10/24 11:44:53;;;;;;;0.60;0.60;;;14.30;91.60;;;;;;5083003;28;20416;-79
2023/10/24 11:47:20;;;;;;;1.40;0.70;;;14.60;96.00;;;;;;5083419;28;20059;-79
2023/10/24 11:49:47;;;;;;;0.68;0.40;;;14.80;80.30;;;;;;5085950;28;20103;-79
2023/10/24 11:52:14;;;;;;;0.95;0.65;;;14.80;58.30;;;;;;5089725;28;20467;-80
2023/10/24 11:54:41;;;;;;;0.57;0.45;;;14.90;53.20;;;;;;5080565;28;20098;-79
2023/10/24 11:57:10;;;;;;;0.95;0.40;;;14.90;49.20;;;;;;5088347;28;20040;-79
2023/10/24 11:59:37;;;;;;;0.35;0.28;;;14.80;46.50;;;;;;5092036;28;20113;-79
2023/10/24 12:02:04;;;;;;;0.52;0.40;;;15.00;49.80;;;;;;5087887;28;20048;-79
2023/10/24 12:04:31;;;;;;;0.70;0.50;;;15.20;48.00;;;;;;5092110;28;20036;-80
2023/10/24 12:07:05;;;;;;;0.57;0.52;;;15.30;35.00;;;;;;5080383;28;20082;-80
2023/10/24 12:09:33;;;;;;;1.83;0.60;;;15.50;27.00;;;;;;5089141;28;20434;-79
2023/10/24 12:12:06;;;;;;;1.20;0.60;;;15.70;20.00;;;;;;5084951;28;20048;-79
2023/10/24 12:14:35;;;;;;;;;;;15.90;14.80;;;;;;5089675;28;20047;-80
2023/10/24 12:17:02;;;;;;;0.52;0.50;;;16.10;9.80;;;;;;5090339;28;19923;-80
2023/10/24 12:19:28;;;;;;;0.93;0.47;;;16.40;5.50;;;;;;5092685;28;20074;-80
2023/10/24 12:21:55;;;;;;;1.30;0.80;;;16.60;1.00;;;;;;5072658;28;20044;-80
2023/10/24 12:24:22;;;;;;;0.85;0.70;;;16.70;1.00;;;;;;5075400;28;20048;-80
2023/10/24 12:26:49;;;;;;;1.23;0.60;;;16.80;1.00;;;;;;5086144;28;20474;-80
2023/10/24 12:29:17;;;;;;;1.83;0.77;;;16.70;1.00;;;;;;5089588;28;20440;-80
2023/10/24 12:31:43;;;;;;;1.30;0.50;;;16.70;1.00;;;;;;5086581;28;20050;-80
2023/10/24 12:34:12;;;;;;;1.20;0.45;;;16.50;1.00;;;;;;5092105;28;20292;-80
2023/10/24 12:36:39;;;;;;;1.15;0.40;;;16.20;1.00;;;;;;5086559;28;20058;-80
2023/10/24 12:39:06;;;;;;;0.57;0.40;;;16.10;1.00;;;;;;5094302;28;20058;-80
2023/10/24 12:41:33;;;;;;;1.00;0.43;;;16.00;1.00;;;;;;5088432;28;20051;-80
2023/10/24 12:44:00;;;;;;;1.10;0.60;;;16.10;1.00;;;;;;5088560;28;20350;-80
2023/10/24 12:46:27;;;;;;;1.08;0.60;;;16.40;1.00;;;;;;5071727;28;20067;-80
2023/10/24 12:48:54;;;;;;;1.10;0.60;;;16.70;1.00;;;;;;5089283;28;20044;-80
2023/10/24 12:51:28;;;;;;;0.77;0.52;;;17.10;1.00;;;;;;5088178;28;20052;-80
2023/10/24 12:53:55;;;;;;;0.55;0.50;;;17.50;1.00;;;;;;5087104;28;20119;-80
2023/10/24 12:56:22;;;;;;;0.80;0.60;;;17.70;1.00;;;;;;5084743;28;20052;-80
2023/10/24 12:58:49;;;;;;;0.50;0.50;;;18.00;1.00;;;;;;5087798;28;20494;-80
2023/10/24 13:01:19;;;;;;;1.08;0.55;;;18.30;1.00;;;;;;5091580;28;20082;-81
2023/10/24 13:03:47;;;;;;;0.90;0.60;;;18.40;1.00;;;;;;5085546;28;20040;-80
2023/10/24 13:06:15;;;;;;;1.15;0.50;;;18.30;1.00;;;;;;5085382;28;20425;-80